Abadi — V8V2002 — position and weather

sailwx.info

Track history (hours):
 
Tides and Currents Weather Stations Pressure Air Temp Water Temp Dewpoint Dewpoint Depression Visibility Wind Speed Wind Dir Waves Ship Positions

Abadi

Last reported at 2017-Dec-07 16:22 UTC. Time now 2017-Dec-13 14:47 UTC.
Position N 23°41' E 122°60'.

Type: Ship (hazmat cat A). MMSI: 508011000.

Date/timePositionNaut miles runAvg speedWind from/ knotsBaromVisibWave heightAir tempDewpointWater temp
2017-Dec-07 16:22N 23°41' E 122°60'718.5
2017-Dec-07 16:00N 23°47' E 123°03'918.5
2017-Dec-07 15:30N 23°56' E 123°07'918.3
2017-Dec-07 15:00N 24°04' E 123°11'918.5
2017-Dec-07 14:30N 24°12' E 123°15'918.7
2017-Dec-07 14:00N 24°21' E 123°20'918.3
2017-Dec-07 13:30N 24°30' E 123°22'918.2
2017-Dec-07 13:00N 24°38' E 123°26'918.6
2017-Dec-07 12:30N 24°47' E 123°30'1118.1
2017-Dec-07 11:56N 24°56' E 123°35'  
2017-Dec-01 04:56N 24°53' E 123°42'511.2
2017-Dec-01 04:30N 24°49' E 123°38'510.7
2017-Dec-01 04:00N 24°45' E 123°35'510.8
2017-Dec-01 03:30N 24°40' E 123°33'510.8
2017-Dec-01 03:01N 24°35' E 123°32'510.2
2017-Dec-01 02:31N 24°31' E 123°28'510.4
2017-Dec-01 02:00N 24°27' E 123°24'510.3
2017-Dec-01 01:31N 24°22' E 123°22'510.0
2017-Dec-01 01:00N 24°18' E 123°19'5 9.5
2017-Dec-01 00:30N 24°14' E 123°16'5 9.8
2017-Dec-01 00:00N 24°10' E 123°13'510.4
2017-Nov-30 23:30N 24°05' E 123°11'510.5
2017-Nov-30 23:00N 24°00' E 123°09'510.3
2017-Nov-30 22:30N 23°55' E 123°07'510.5
2017-Nov-30 22:00N 23°50' E 123°05'510.7
2017-Nov-30 21:31N 23°45' E 123°03'510.5
2017-Nov-30 21:00N 23°40' E 123°02'  
Track history (hours):
 
Tides and Currents Weather Stations Pressure Air Temp Water Temp Dewpoint Dewpoint Depression Visibility Wind Speed Wind Dir Waves Ship Positions

Abadi

Last reported at 2017-Dec-07 16:22 UTC. Time now 2017-Dec-13 14:47 UTC.
Position N 23°41' E 122°60'.

Type: Ship (hazmat cat A). MMSI: 508011000.

Date/timePositionNaut miles runAvg speedWind from/ knotsBaromVisibWave heightAir tempDewpointWater temp
2017-Dec-07 16:22N 23°41' E 122°60'718.5
2017-Dec-07 16:00N 23°47' E 123°03'918.5
2017-Dec-07 15:30N 23°56' E 123°07'918.3
2017-Dec-07 15:00N 24°04' E 123°11'918.5
2017-Dec-07 14:30N 24°12' E 123°15'918.7
2017-Dec-07 14:00N 24°21' E 123°20'918.3
2017-Dec-07 13:30N 24°30' E 123°22'918.2
2017-Dec-07 13:00N 24°38' E 123°26'918.6
2017-Dec-07 12:30N 24°47' E 123°30'1118.1
2017-Dec-07 11:56N 24°56' E 123°35'  
2017-Dec-01 04:56N 24°53' E 123°42'511.2
2017-Dec-01 04:30N 24°49' E 123°38'510.7
2017-Dec-01 04:00N 24°45' E 123°35'510.8
2017-Dec-01 03:30N 24°40' E 123°33'510.8
2017-Dec-01 03:01N 24°35' E 123°32'510.2
2017-Dec-01 02:31N 24°31' E 123°28'510.4
2017-Dec-01 02:00N 24°27' E 123°24'510.3
2017-Dec-01 01:31N 24°22' E 123°22'510.0
2017-Dec-01 01:00N 24°18' E 123°19'5 9.5
2017-Dec-01 00:30N 24°14' E 123°16'5 9.8
2017-Dec-01 00:00N 24°10' E 123°13'510.4
2017-Nov-30 23:30N 24°05' E 123°11'510.5
2017-Nov-30 23:00N 24°00' E 123°09'510.3
2017-Nov-30 22:30N 23°55' E 123°07'510.5
2017-Nov-30 22:00N 23°50' E 123°05'510.7
2017-Nov-30 21:31N 23°45' E 123°03'510.5
2017-Nov-30 21:00N 23°40' E 123°02'  

Dump ship's entire track history